Time;durP1;ratioP1;P1;durP2;ratioP2;P2;SDS_P1;SDS_P2;PMS_P1;PMS_P2;Temp;Humidity;BMP_temperature;BMP_pressure;BME280_temperature;BME280_humidity;BME280_pressure;Samples;Min_cycle;Max_cycle;Signal;HPM_P1;HPM_P2
2023/08/25 00:01:35;;;;;;;14.13;12.73;;;;;;;24.98;62.86;98630.41;5031964;28;20064;-92
2023/08/25 00:04:01;;;;;;;13.88;12.48;;;;;;;24.90;63.00;98624.78;5033200;28;20491;-93
2023/08/25 00:06:27;;;;;;;14.30;12.75;;;;;;;24.89;63.08;98624.91;5032990;28;20038;-92
2023/08/25 00:08:53;;;;;;;13.65;12.32;;;;;;;24.76;63.18;98620.53;5033212;28;20041;-91
2023/08/25 00:11:20;;;;;;;16.13;14.32;;;;;;;24.69;63.44;98623.94;5033138;28;20068;-92
2023/08/25 00:13:46;;;;;;;14.55;13.25;;;;;;;24.69;63.68;98626.66;5037969;28;20045;-92
2023/08/25 00:16:12;;;;;;;14.38;12.98;;;;;;;24.57;64.13;98613.16;5029576;28;20049;-93
2023/08/25 00:18:38;;;;;;;14.20;12.80;;;;;;;24.46;64.32;98615.88;5032626;28;20048;-93
2023/08/25 00:21:04;;;;;;;15.02;13.38;;;;;;;24.48;65.56;98635.69;5033031;28;20049;-90
2023/08/25 00:23:30;;;;;;;15.30;13.73;;;;;;;24.36;66.23;98618.56;5031973;28;20455;-92
2023/08/25 00:25:56;;;;;;;14.65;13.25;;;;;;;24.28;67.31;98615.63;5049552;28;20132;-91
2023/08/25 00:28:23;;;;;;;15.30;13.90;;;;;;;24.13;67.14;98601.50;5033305;28;20128;-93
2023/08/25 00:30:49;;;;;;;14.68;13.25;;;;;;;24.09;67.33;98607.34;5030680;28;20037;-92
2023/08/25 00:33:15;;;;;;;14.60;12.95;;;;;;;24.06;67.15;98608.47;5032307;28;20091;-91
2023/08/25 00:35:42;;;;;;;14.27;12.80;;;;;;;23.99;67.14;98597.25;5031582;28;20140;-92
2023/08/25 00:38:07;;;;;;;14.57;13.05;;;;;;;23.97;67.28;98593.81;5030541;28;20472;-94
2023/08/25 00:40:37;;;;;;;14.43;13.02;;;;;;;23.91;67.52;98599.75;5048965;28;20148;-93
2023/08/25 00:43:03;;;;;;;15.13;13.65;;;;;;;23.90;68.48;98621.59;5032519;28;20041;-91
2023/08/25 00:45:34;;;;;;;15.98;14.25;;;;;;;23.70;68.77;98599.72;5030845;28;20128;-92
2023/08/25 00:48:00;;;;;;;15.10;13.70;;;;;;;23.64;69.50;98602.94;5032759;28;20056;-91
2023/08/25 00:50:28;;;;;;;16.30;14.63;;;;;;;23.76;69.27;98622.78;5048920;28;20034;-91
2023/08/25 00:52:55;;;;;;;15.93;14.33;;;;;;;23.75;69.55;98618.31;5033696;28;20211;-92
2023/08/25 00:55:21;;;;;;;14.88;13.27;;;;;;;23.72;69.52;98615.84;5032015;28;20267;-92
2023/08/25 00:57:47;;;;;;;17.88;14.40;;;;;;;23.57;70.23;98616.16;5032534;28;20033;-91
2023/08/25 01:00:14;;;;;;;15.63;14.02;;;;;;;23.63;70.16;98624.78;5047118;28;20120;-92
2023/08/25 01:02:41;;;;;;;17.13;15.32;;;;;;;23.51;69.99;98624.81;5032672;28;20038;-93
2023/08/25 01:05:07;;;;;;;16.15;14.45;;;;;;;23.50;70.42;98620.34;5033377;28;20042;-92
2023/08/25 01:07:33;;;;;;;15.10;13.80;;;;;;;23.45;71.04;98619.03;5032825;28;20117;-90
2023/08/25 01:09:59;;;;;;;15.07;13.43;;;;;;;23.35;71.30;98608.91;5032742;28;20072;-91
2023/08/25 01:12:34;;;;;;;15.85;14.25;;;;;;;23.39;70.89;98595.94;5031807;28;20033;-91
2023/08/25 01:15:05;;;;;;;16.02;14.35;;;;;;;23.37;71.67;98596.06;5031764;28;20041;-93
2023/08/25 01:17:37;;;;;;;15.75;14.15;;;;;;;23.38;72.31;98613.25;5037096;28;20022;-92
2023/08/25 01:20:07;;;;;;;17.33;15.55;;;;;;;23.33;72.13;98618.16;5032177;28;20487;-91
2023/08/25 01:22:43;;;;;;;16.27;14.68;;;;;;;23.32;71.81;98613.75;5033297;28;20545;-91
2023/08/25 01:25:24;;;;;;;16.33;14.63;;;;;;;23.27;72.11;98607.81;5038006;28;20049;-92
2023/08/25 01:27:50;;;;;;;17.17;15.40;;;;;;;23.33;72.12;98612.72;5032243;28;20033;-91
2023/08/25 01:30:16;;;;;;;16.88;14.95;;;;;;;23.31;71.84;98612.00;5029513;28;20038;-92
2023/08/25 01:32:42;;;;;;;17.50;15.00;;;;;;;23.23;73.00;98619.94;5047734;28;20518;-91
2023/08/25 01:35:08;;;;;;;17.02;15.20;;;;;;;23.24;72.92;98610.78;5031888;28;20392;-91
2023/08/25 01:37:40;;;;;;;17.17;14.90;;;;;;;23.22;72.74;98613.63;5048308;28;20038;-91
2023/08/25 01:40:16;;;;;;;17.60;15.77;;;;;;;23.22;73.06;98612.75;5046793;28;20558;-92
2023/08/25 01:42:46;;;;;;;17.50;15.80;;;;;;;23.26;72.86;98619.66;5030818;28;20390;-91
2023/08/25 01:45:14;;;;;;;17.63;15.93;;;;;;;23.22;73.06;98608.19;5030736;28;20131;-93
2023/08/25 01:47:40;;;;;;;17.00;14.82;;;;;;;23.25;72.80;98617.91;5031030;28;20056;-93
2023/08/25 01:50:09;;;;;;;17.33;15.70;;;;;;;23.11;72.70;98606.34;5031906;28;20029;-91
2023/08/25 01:52:35;;;;;;;17.58;15.88;;;;;;;23.10;73.49;98612.78;5032022;28;20076;-92
2023/08/25 01:55:01;;;;;;;18.20;16.25;;;;;;;23.12;73.43;98618.09;5048705;28;20136;-92
2023/08/25 01:57:27;;;;;;;18.40;16.60;;;;;;;22.84;74.39;98597.72;5047950;28;20045;-91
2023/08/25 01:59:54;;;;;;;18.05;16.38;;;;;;;22.91;74.13;98626.91;5031131;28;20431;-91
2023/08/25 02:02:21;;;;;;;19.08;17.25;;;;;;;22.83;73.70;98614.97;5030320;28;20175;-93
2023/08/25 02:04:46;;;;;;;17.85;16.25;;;;;;;22.85;73.63;98618.41;5032370;28;20034;-92
2023/08/25 02:07:12;;;;;;;17.88;16.05;;;;;;;22.86;73.93;98615.59;5031455;28;20083;-91
2023/08/25 02:09:38;;;;;;;19.05;17.25;;;;;;;22.81;74.21;98614.22;5031873;28;20049;-92
2023/08/25 02:12:04;;;;;;;19.65;17.85;;;;;;;22.72;74.13;98608.53;5030284;28;20037;-91
2023/08/25 02:14:30;;;;;;;18.20;16.45;;;;;;;22.75;74.98;98616.44;5029216;28;20041;-90
2023/08/25 02:16:57;;;;;;;21.60;18.23;;;;;;;22.69;74.13;98616.06;5030877;28;20042;-91
2023/08/25 02:19:24;;;;;;;18.98;17.15;;;;;;;22.68;74.75;98608.91;5031278;28;20143;-92
2023/08/25 02:21:50;;;;;;;20.17;18.27;;;;;;;22.72;74.92;98618.53;5031330;28;20552;-93
2023/08/25 02:24:16;;;;;;;20.60;18.80;;;;;;;22.58;75.06;98607.94;5031359;28;20029;-93
2023/08/25 02:26:42;;;;;;;22.17;20.05;;;;;;;22.44;75.87;98600.88;5030890;28;20563;-91
2023/08/25 02:29:09;;;;;;;20.70;18.77;;;;;;;22.43;75.59;98599.16;5030948;28;20128;-92
2023/08/25 02:31:35;;;;;;;22.02;19.27;;;;;;;22.45;75.54;98594.50;5029425;28;20172;-92
2023/08/25 02:34:03;;;;;;;20.42;18.50;;;;;;;22.49;75.38;98601.41;5030301;28;20523;-93
2023/08/25 02:36:28;;;;;;;20.08;18.02;;;;;;;22.55;75.10;98611.72;5030546;28;20038;-91
2023/08/25 02:38:54;;;;;;;23.10;21.10;;;;;;;22.40;75.62;98602.94;5031792;28;20871;-92
2023/08/25 02:41:20;;;;;;;22.05;19.83;;;;;;;22.41;76.61;98622.81;5030560;28;20107;-92
2023/08/25 02:43:46;;;;;;;22.42;19.95;;;;;;;22.30;77.82;98607.38;5031622;28;20049;-91
2023/08/25 02:46:12;;;;;;;21.48;19.63;;;;;;;22.41;76.99;98618.25;5033171;28;20049;-93
2023/08/25 02:48:37;;;;;;;23.70;21.08;;;;;;;22.37;77.14;98621.31;5036351;28;20541;-92
2023/08/25 02:51:05;;;;;;;21.20;19.20;;;;;;;22.33;77.35;98610.69;5033822;28;20041;-91
2023/08/25 02:53:31;;;;;;;21.75;19.63;;;;;;;22.34;77.69;98619.72;5051282;28;20477;-92
2023/08/25 02:55:56;;;;;;;22.52;20.38;;;;;;;22.21;78.24;98600.81;5035083;28;20136;-94
2023/08/25 02:58:22;;;;;;;23.33;20.90;;;;;;;22.24;78.02;98614.13;5035204;28;20701;-92
2023/08/25 03:00:48;;;;;;;23.98;21.67;;;;;;;22.19;78.79;98618.16;5032317;28;20030;-92
2023/08/25 03:03:14;;;;;;;22.00;19.98;;;;;;;22.17;79.35;98620.13;5034598;28;20154;-94
2023/08/25 03:05:40;;;;;;;22.60;20.50;;;;;;;22.05;80.12;98609.22;5035927;28;20049;-91
2023/08/25 03:08:12;;;;;;;25.02;22.35;;;;;;;22.09;81.06;98621.56;5034231;28;20045;-93
2023/08/25 03:10:38;;;;;;;22.98;20.92;;;;;;;22.06;81.35;98621.81;5034555;28;20045;-92
2023/08/25 03:13:04;;;;;;;25.98;23.58;;;;;;;22.03;80.80;98619.31;5034703;28;20056;-92
2023/08/25 03:15:30;;;;;;;25.13;23.00;;;;;;;21.84;84.00;98602.75;5033342;28;21429;-93
2023/08/25 03:17:55;;;;;;;25.98;23.70;;;;;;;21.85;84.29;98618.03;5034652;28;20041;-92
2023/08/25 03:20:21;;;;;;;25.17;22.80;;;;;;;21.86;84.30;98620.63;5034742;28;20497;-92
2023/08/25 03:22:47;;;;;;;25.83;23.67;;;;;;;21.80;83.84;98614.81;5050963;28;20041;-92
2023/08/25 03:25:14;;;;;;;27.02;24.63;;;;;;;21.77;84.00;98621.28;5033395;28;20037;-91
2023/08/25 03:27:40;;;;;;;26.10;23.65;;;;;;;21.73;84.12;98609.84;5050854;28;20095;-92
2023/08/25 03:30:07;;;;;;;27.17;24.77;;;;;;;21.72;84.48;98615.38;5037354;28;20033;-92
2023/08/25 03:32:33;;;;;;;26.95;24.65;;;;;;;21.63;84.67;98599.84;5034936;28;20128;-93
2023/08/25 03:34:58;;;;;;;27.77;25.42;;;;;;;21.64;85.08;98618.69;5034440;28;20105;-92
2023/08/25 03:37:24;;;;;;;29.33;26.58;;;;;;;21.66;84.59;98629.38;5034610;28;20030;-91
2023/08/25 03:39:50;;;;;;;27.92;25.42;;;;;;;21.63;85.41;98625.06;5033868;28;20037;-91
2023/08/25 03:42:17;;;;;;;30.95;27.85;;;;;;;21.54;86.40;98623.91;5050406;28;20042;-91
2023/08/25 03:44:44;;;;;;;29.90;27.45;;;;;;;21.55;86.32;98630.16;5034053;28;20045;-91
2023/08/25 03:47:10;;;;;;;31.58;28.70;;;;;;;21.53;86.43;98615.88;5032753;28;20037;-92
2023/08/25 03:49:36;;;;;;;30.15;27.63;;;;;;;21.56;87.02;98614.78;5034166;28;20499;-90
2023/08/25 03:52:02;;;;;;;29.45;26.85;;;;;;;21.60;86.69;98627.09;5034418;28;20913;-91
2023/08/25 03:54:31;;;;;;;30.17;27.45;;;;;;;21.45;86.97;98608.34;5033595;28;20037;-91
2023/08/25 03:56:56;;;;;;;29.92;27.38;;;;;;;21.53;87.57;98624.88;5033871;28;20445;-90
2023/08/25 03:59:24;;;;;;;30.08;27.70;;;;;;;21.54;86.91;98623.91;5032012;28;20042;-91
2023/08/25 04:01:50;;;;;;;1999.90;999.90;;;;;;;21.39;86.51;98605.22;5031290;28;20048;-92
2023/08/25 04:04:16;;;;;;;1999.90;999.90;;;;;;;21.54;87.07;98632.00;5050338;28;20038;-91
2023/08/25 04:06:42;;;;;;;1999.90;999.90;;;;;;;21.38;87.77;98615.16;5033971;28;20044;-91
2023/08/25 04:09:08;;;;;;;1999.90;999.90;;;;;;;21.35;89.41;98618.09;5032237;28;20072;-91
2023/08/25 04:11:35;;;;;;;1999.90;999.90;;;;;;;21.32;89.85;98624.59;5033930;28;21431;-92
2023/08/25 04:14:01;;;;;;;1999.90;999.90;;;;;;;21.37;89.42;98631.50;5033193;28;20048;-90
2023/08/25 04:16:28;;;;;;;1999.90;999.90;;;;;;;21.28;90.08;98628.50;5031472;28;20435;-91
2023/08/25 04:18:54;;;;;;;1999.90;999.90;;;;;;;21.24;91.02;98627.00;5033789;28;20042;-91
2023/08/25 04:21:20;;;;;;;1999.90;999.90;;;;;;;21.20;90.11;98624.63;5032979;28;20696;-91
2023/08/25 04:23:45;;;;;;;1999.90;999.90;;;;;;;21.25;90.07;98638.66;5048922;28;20084;-91
2023/08/25 04:26:11;;;;;;;1999.90;999.90;;;;;;;21.25;90.22;98635.97;5033907;28;20045;-92
2023/08/25 04:28:37;;;;;;;1999.90;999.90;;;;;;;21.19;90.72;98629.19;5033539;28;20125;-91
2023/08/25 04:31:03;;;;;;;1999.90;999.90;;;;;;;21.10;91.31;98611.78;5031090;28;20034;-90
2023/08/25 04:33:30;;;;;;;1999.90;999.90;;;;;;;21.20;93.55;98625.47;5033072;28;20033;-91
2023/08/25 04:35:56;;;;;;;1999.90;999.90;;;;;;;21.18;94.02;98638.25;5033639;28;20049;-92
2023/08/25 04:38:22;;;;;;;1999.90;999.90;;;;;;;21.12;95.98;98633.28;5033269;28;20056;-91
2023/08/25 04:40:47;;;;;;;1999.90;999.90;;;;;;;21.19;95.39;98644.50;5031719;28;20053;-91
2023/08/25 04:43:13;;;;;;;1999.90;999.90;;;;;;;21.17;95.89;98644.66;5033539;28;20064;-93
2023/08/25 04:45:39;;;;;;;1999.90;999.90;;;;;;;21.18;95.56;98642.81;5031822;28;20041;-92
2023/08/25 04:48:05;;;;;;;1999.90;999.90;;;;;;;21.17;97.21;98649.19;5033260;28;20054;-91
2023/08/25 04:50:32;;;;;;;1999.90;999.90;;;;;;;21.21;97.95;98646.16;5031170;28;20041;-91
2023/08/25 04:52:58;;;;;;;1999.90;999.90;;;;;;;21.24;99.67;98650.47;5031826;28;20041;-91
2023/08/25 04:55:24;;;;;;;1999.90;999.90;;;;;;;21.23;99.77;98643.31;5031699;28;20037;-93
2023/08/25 04:57:49;;;;;;;1999.90;999.90;;;;;;;21.28;98.57;98639.31;5032568;28;20493;-93
2023/08/25 05:00:15;;;;;;;1999.90;999.90;;;;;;;21.36;99.48;98637.88;5028906;28;20045;-91
2023/08/25 05:02:41;;;;;;;1999.90;999.90;;;;;;;21.33;100.00;98647.09;5028315;28;20037;-91
2023/08/25 05:05:11;;;;;;;1999.90;999.90;;;;;;;21.30;100.00;98628.41;5031467;28;20041;-91
2023/08/25 05:07:38;;;;;;;1999.90;999.90;;;;;;;21.41;100.00;98628.50;5028749;28;20495;-93
2023/08/25 05:10:05;;;;;;;1999.90;999.90;;;;;;;21.51;100.00;98626.84;5048634;28;21653;-93
2023/08/25 05:12:31;;;;;;;1999.90;999.90;;;;;;;21.51;100.00;98624.13;5031454;28;20154;-90
2023/08/25 05:14:58;;;;;;;1999.90;999.90;;;;;;;21.58;100.00;98620.94;5030812;28;20472;-91
2023/08/25 05:17:23;;;;;;;1999.90;999.90;;;;;;;21.68;100.00;98622.84;5030222;28;20038;-92
2023/08/25 05:19:49;;;;;;;1999.90;999.90;;;;;;;21.74;100.00;98635.06;5032658;28;20064;-92
2023/08/25 05:22:15;;;;;;;1999.90;999.90;;;;;;;21.77;100.00;98618.59;5031109;28;20562;-91
2023/08/25 05:24:42;;;;;;;1999.90;999.90;;;;;;;21.86;100.00;98617.91;5032057;28;20039;-92
2023/08/25 05:27:09;;;;;;;1999.90;999.90;;;;;;;22.06;100.00;98645.31;5032668;28;20038;-93
2023/08/25 05:29:35;;;;;;;1999.90;999.90;;;;;;;22.10;100.00;98647.66;5032443;28;20064;-92
2023/08/25 05:32:01;;;;;;;1999.90;999.90;;;;;;;22.10;100.00;98647.66;5030068;28;20483;-93
2023/08/25 05:34:27;;;;;;;1999.90;999.90;;;;;;;22.20;100.00;98652.38;5031887;28;20053;-93
2023/08/25 05:36:53;;;;;;;1999.90;999.90;;;;;;;22.37;100.00;98660.09;5048879;28;20038;-91
2023/08/25 05:39:20;;;;;;;1999.90;999.90;;;;;;;22.50;100.00;98657.31;5032280;28;20033;-91
2023/08/25 05:41:48;;;;;;;1999.90;999.90;;;;;;;22.65;100.00;98663.38;5031062;28;20066;-94
2023/08/25 05:44:14;;;;;;;1999.90;999.90;;;;;;;22.71;100.00;98668.31;5032436;28;20045;-93
2023/08/25 05:46:40;;;;;;;1999.90;999.90;;;;;;;22.80;96.49;98651.31;5046394;28;20056;-93
2023/08/25 05:49:06;;;;;;;1999.90;999.90;;;;;;;23.01;91.83;98658.75;5049031;28;20037;-93
2023/08/25 05:51:32;;;;;;;1999.90;999.90;;;;;;;23.03;90.95;98651.34;5049352;28;20042;-92
2023/08/25 05:53:58;;;;;;;1999.90;999.90;;;;;;;23.29;90.70;98662.81;5029558;28;20554;-93
2023/08/25 05:56:25;;;;;;;1999.90;999.90;;;;;;;23.36;88.10;98637.78;5047854;28;20084;-92
2023/08/25 05:58:53;;;;;;;1999.90;999.90;;;;;;;23.52;88.25;98647.38;5032828;28;20051;-92
2023/08/25 06:01:19;;;;;;;1999.90;999.90;;;;;;;23.68;88.52;98649.66;5031509;28;20132;-93
2023/08/25 06:03:45;;;;;;;1999.90;999.90;;;;;;;23.97;88.03;98660.84;5031736;28;20037;-93
2023/08/25 06:06:12;;;;;;;1999.90;999.90;;;;;;;24.04;85.28;98642.19;5032082;28;20088;-93
2023/08/25 06:08:37;;;;;;;1999.90;999.90;;;;;;;24.27;85.24;98653.81;5031178;28;20064;-93
2023/08/25 06:11:04;;;;;;;1999.90;999.90;;;;;;;24.33;81.06;98635.13;5031555;28;20491;-95
2023/08/25 06:13:29;;;;;;;1999.90;999.90;;;;;;;24.54;79.72;98656.03;5046795;28;20038;-95
2023/08/25 06:15:57;;;;;;;1999.90;999.90;;;;;;;24.71;77.62;98654.59;5030522;28;20446;-93
2023/08/25 06:18:23;;;;;;;1999.90;999.90;;;;;;;24.86;76.37;98655.09;5032071;28;20132;-92
2023/08/25 06:20:50;;;;;;;1999.90;999.90;;;;;;;24.94;75.33;98652.53;5029552;28;20124;-92
2023/08/25 06:23:16;;;;;;;1999.90;999.90;;;;;;;25.09;74.88;98643.06;5033232;28;20049;-93
2023/08/25 06:25:43;;;;;;;1999.90;999.90;;;;;;;25.34;72.71;98659.94;5035798;28;20942;-92
2023/08/25 06:28:09;;;;;;;1999.90;999.90;;;;;;;25.39;73.35;98663.09;5033691;28;20056;-94
2023/08/25 06:30:36;;;;;;;1999.90;999.90;;;;;;;25.42;68.47;98641.06;5034422;28;20482;-92
2023/08/25 06:33:03;;;;;;;1999.90;999.90;;;;;;;25.53;66.77;98664.59;5037825;28;20045;-92
2023/08/25 06:35:29;;;;;;;1999.90;999.90;;;;;;;25.40;67.83;98653.94;5035074;28;20040;-91
2023/08/25 06:37:56;;;;;;;1999.90;999.90;;;;;;;25.27;69.15;98656.03;5031911;28;20033;-93
2023/08/25 06:40:21;;;;;;;1999.90;999.90;;;;;;;25.39;68.33;98654.91;5035055;28;20041;-93
2023/08/25 06:42:47;;;;;;;1999.90;999.90;;;;;;;25.58;69.08;98635.06;5035906;28;20037;-94
2023/08/25 06:45:13;;;;;;;1999.90;999.90;;;;;;;25.77;66.12;98637.81;5034804;28;20033;-93
2023/08/25 06:47:39;;;;;;;1999.90;999.90;;;;;;;25.96;64.94;98649.78;5036186;28;20072;-95
2023/08/25 06:50:07;;;;;;;1999.90;999.90;;;;;;;26.11;64.43;98639.31;5038457;28;20030;-92
2023/08/25 06:52:38;;;;;;;1999.90;999.90;;;;;;;26.10;63.47;98643.91;5052243;28;20055;-94
2023/08/25 06:55:05;;;;;;;1999.90;999.90;;;;;;;25.84;62.48;98635.38;5034379;28;20137;-93
2023/08/25 06:57:31;;;;;;;1999.90;999.90;;;;;;;25.91;63.72;98647.47;5035607;28;20088;-93
2023/08/25 06:59:57;;;;;;;1999.90;999.90;;;;;;;25.87;63.62;98640.53;5034633;28;20045;-91
2023/08/25 07:02:23;;;;;;;1999.90;999.90;;;;;;;25.99;62.72;98654.94;5033926;28;20045;-92
2023/08/25 07:04:49;;;;;;;1999.90;999.90;;;;;;;25.83;63.62;98645.44;5035707;28;20038;-93
2023/08/25 07:07:24;;;;;;;1999.90;999.90;;;;;;;26.24;60.83;98645.34;5036070;28;20087;-95
2023/08/25 07:09:49;;;;;;;1999.90;999.90;;;;;;;26.35;61.78;98655.22;5034593;28;20430;-94
2023/08/25 07:12:15;;;;;;;1999.90;999.90;;;;;;;26.50;60.26;98647.44;5032853;28;20053;-92
2023/08/25 07:14:42;;;;;;;1999.90;999.90;;;;;;;26.16;61.59;98642.47;5034985;28;20064;-92
2023/08/25 07:17:08;;;;;;;1999.90;999.90;;;;;;;26.21;62.39;98654.66;5033120;28;20029;-93
2023/08/25 07:19:34;;;;;;;1999.90;999.90;;;;;;;26.26;61.05;98661.53;5049559;28;20059;-94
2023/08/25 07:22:00;;;;;;;1999.90;999.90;;;;;;;26.61;61.27;98652.81;5035104;28;20041;-94
2023/08/25 07:24:27;;;;;;;1999.90;999.90;;;;;;;26.83;60.37;98652.47;5035366;28;20437;-93
2023/08/25 07:26:53;;;;;;;1999.90;999.90;;;;;;;27.04;58.15;98667.75;5035903;28;20041;-94
2023/08/25 07:29:19;;;;;;;1999.90;999.90;;;;;;;26.89;59.51;98661.94;5036048;28;20044;-93
2023/08/25 07:31:44;;;;;;;1999.90;999.90;;;;;;;27.00;59.93;98658.13;5033853;28;20042;-94
2023/08/25 07:34:10;;;;;;;1999.90;999.90;;;;;;;27.23;58.23;98667.72;5034159;28;20034;-94
2023/08/25 07:36:37;;;;;;;1999.90;999.90;;;;;;;27.29;57.08;98663.53;5034863;28;20128;-92
2023/08/25 07:39:03;;;;;;;1999.90;999.90;;;;;;;27.40;58.90;98665.22;5035050;28;20518;-94
2023/08/25 07:41:31;;;;;;;1999.90;999.90;;;;;;;27.68;57.06;98659.75;5051779;28;20037;-93
2023/08/25 07:43:57;;;;;;;1999.90;999.90;;;;;;;27.88;56.54;98668.72;5035961;28;20033;-95
2023/08/25 07:46:23;;;;;;;1507.00;756.40;;;;;;;28.04;55.55;98669.75;5035939;28;20041;-93
2023/08/25 07:48:50;;;;;;;1506.78;756.15;;;;;;;28.10;53.83;98661.94;5036015;28;20044;-94
2023/08/25 07:51:27;;;;;;;29.95;27.30;;;;;;;28.22;54.86;98672.47;5033474;28;20044;-95
2023/08/25 07:53:53;;;;;;;28.73;26.05;;;;;;;28.43;53.67;98669.44;5033796;28;20439;-95
2023/08/25 07:56:19;;;;;;;29.10;26.42;;;;;;;28.39;54.71;98670.75;5034934;28;20160;-95
2023/08/25 07:58:46;;;;;;;29.75;27.15;;;;;;;28.41;53.38;98667.84;5033228;28;20508;-94
2023/08/25 08:01:12;;;;;;;30.30;27.52;;;;;;;28.43;53.21;98657.59;5035018;28;20037;-94
2023/08/25 08:03:38;;;;;;;30.33;27.33;;;;;;;28.61;53.71;98660.38;5035397;28;20065;-94
2023/08/25 08:06:04;;;;;;;33.97;30.95;;;;;;;28.79;53.35;98654.84;5036752;28;20570;-94
2023/08/25 08:08:29;;;;;;;32.50;29.73;;;;;;;29.09;53.09;98664.47;5036859;28;20045;-94
2023/08/25 08:10:55;;;;;;;33.85;30.67;;;;;;;29.33;52.57;98668.38;5035125;28;20063;-93
2023/08/25 08:13:21;;;;;;;33.10;29.98;;;;;;;29.48;51.93;98662.09;5035552;28;20598;-95
2023/08/25 08:15:48;;;;;;;34.08;30.63;;;;;;;29.56;51.60;98647.59;5032755;28;20062;-94
2023/08/25 08:18:14;;;;;;;33.40;30.25;;;;;;;29.68;50.96;98668.16;5035421;28;20036;-95
2023/08/25 08:20:40;;;;;;;32.55;29.52;;;;;;;29.39;51.49;98665.00;5035062;28;20037;-93
2023/08/25 08:23:06;;;;;;;32.55;29.63;;;;;;;29.57;51.13;98668.47;5035377;28;20038;-94
2023/08/25 08:25:33;;;;;;;32.55;29.33;;;;;;;29.59;50.06;98643.66;5035378;28;20430;-93
2023/08/25 08:27:59;;;;;;;30.17;27.30;;;;;;;29.79;49.95;98653.34;5041542;28;20040;-94
2023/08/25 08:30:25;;;;;;;30.90;27.80;;;;;;;29.78;49.93;98656.25;5048508;28;20128;-95
2023/08/25 08:32:52;;;;;;;31.60;28.30;;;;;;;29.27;51.99;98657.03;5034885;28;20073;-95
2023/08/25 08:35:18;;;;;;;31.10;28.35;;;;;;;29.48;50.54;98659.38;5034889;28;20041;-93
2023/08/25 08:37:44;;;;;;;30.73;27.52;;;;;;;29.73;49.39;98653.16;5034015;28;20033;-95
2023/08/25 08:40:11;;;;;;;29.90;26.75;;;;;;;29.75;49.38;98667.53;5033605;28;20049;-95
2023/08/25 08:42:37;;;;;;;28.05;25.38;;;;;;;30.09;50.42;98656.50;5034750;28;20046;-95
2023/08/25 08:45:07;;;;;;;28.63;25.75;;;;;;;30.44;48.34;98651.75;5033253;28;20041;-95
2023/08/25 08:47:34;;;;;;;29.20;24.40;;;;;;;30.64;47.00;98660.47;5035288;28;20068;-93
2023/08/25 08:50:03;;;;;;;28.63;26.13;;;;;;;30.81;45.86;98642.97;5049560;28;20553;-94
2023/08/25 08:52:29;;;;;;;27.83;25.27;;;;;;;30.86;44.21;98626.88;5051059;28;20047;-94
2023/08/25 08:54:57;;;;;;;26.13;23.48;;;;;;;31.03;45.22;98643.31;5034428;28;20067;-93
2023/08/25 08:57:24;;;;;;;24.25;22.00;;;;;;;31.10;44.13;98647.94;5033471;28;20038;-94
2023/08/25 08:59:51;;;;;;;26.23;23.80;;;;;;;31.24;43.44;98648.22;5033981;28;20144;-95
2023/08/25 09:02:20;;;;;;;28.30;25.23;;;;;;;31.15;43.59;98639.16;5032908;28;20091;-95
2023/08/25 09:04:50;;;;;;;26.38;23.83;;;;;;;30.79;44.35;98650.50;5038932;28;20045;-94
2023/08/25 09:07:18;;;;;;;26.17;23.67;;;;;;;30.73;44.12;98647.63;5033405;28;20044;-94
2023/08/25 09:09:45;;;;;;;;;;;;;;;30.71;45.12;98645.06;5033351;28;20041;-95
2023/08/25 09:12:13;;;;;;;24.80;22.40;;;;;;;30.72;43.77;98630.28;5032857;28;19971;-94
2023/08/25 09:14:39;;;;;;;25.10;22.70;;;;;;;31.10;43.84;98625.97;5033271;28;20044;-93
2023/08/25 09:17:08;;;;;;;25.55;23.10;;;;;;;31.42;43.17;98639.75;5031752;28;20045;-94
2023/08/25 09:19:34;;;;;;;26.13;23.33;;;;;;;31.49;41.27;98621.56;5033754;28;20049;-93
2023/08/25 09:22:01;;;;;;;24.95;22.55;;;;;;;31.78;41.21;98633.75;5030492;28;20037;-92
2023/08/25 09:24:30;;;;;;;25.67;23.08;;;;;;;32.01;40.52;98625.56;5031835;28;20044;-94
2023/08/25 09:26:56;;;;;;;25.88;23.33;;;;;;;32.18;39.97;98618.06;5031943;28;20034;-94
2023/08/25 09:29:23;;;;;;;25.65;23.25;;;;;;;32.24;39.21;98628.31;5032377;28;20044;-92
2023/08/25 09:31:50;;;;;;;26.83;24.05;;;;;;;31.90;38.81;98621.28;5028332;28;20057;-91
2023/08/25 09:34:16;;;;;;;24.60;22.42;;;;;;;32.17;39.56;98610.84;5033205;28;20128;-93
2023/08/25 09:36:52;;;;;;;25.60;23.00;;;;;;;32.36;39.73;98607.59;5031860;28;20128;-92
2023/08/25 09:39:18;;;;;;;24.92;22.63;;;;;;;32.24;36.67;98590.66;5030355;28;20128;-91
2023/08/25 09:41:46;;;;;;;24.15;22.08;;;;;;;32.19;35.29;98598.63;5031518;28;20034;-92
2023/08/25 09:44:13;;;;;;;25.05;23.15;;;;;;;31.99;37.79;98598.25;5032681;28;20546;-94
2023/08/25 09:46:39;;;;;;;24.88;22.85;;;;;;;32.43;36.37;98605.81;5026563;28;20542;-91
2023/08/25 09:49:06;;;;;;;22.13;20.25;;;;;;;32.70;37.16;98598.88;5028870;28;20140;-94
2023/08/25 09:51:35;;;;;;;24.20;22.02;;;;;;;32.74;36.42;98594.69;5030425;28;20037;-92
2023/08/25 09:54:05;;;;;;;25.05;23.08;;;;;;;32.98;36.23;98600.97;5028458;28;20070;-92
2023/08/25 09:56:33;;;;;;;25.27;23.27;;;;;;;32.75;34.91;98579.03;5029412;28;20113;-94
2023/08/25 09:59:02;;;;;;;24.63;22.73;;;;;;;32.90;35.42;98584.53;5031929;28;20423;-93
2023/08/25 10:01:27;;;;;;;24.63;22.63;;;;;;;33.02;35.93;98579.44;5034699;28;20099;-92
2023/08/25 10:03:53;;;;;;;23.83;21.90;;;;;;;33.19;36.21;98575.47;5030562;28;20050;-91
2023/08/25 10:06:21;;;;;;;26.60;24.35;;;;;;;33.39;35.22;98588.66;5031348;28;20033;-92
2023/08/25 10:08:47;;;;;;;25.97;23.97;;;;;;;32.91;35.94;98572.50;5031440;28;20503;-91
2023/08/25 10:11:16;;;;;;;23.73;21.83;;;;;;;33.25;35.73;98577.44;5044106;28;20730;-90
2023/08/25 10:13:44;;;;;;;25.45;23.23;;;;;;;33.40;35.30;98584.81;5030626;28;20418;-92
2023/08/25 10:16:11;;;;;;;;;;;;;;;33.13;35.67;98578.97;5029245;28;20129;-92
2023/08/25 10:18:43;;;;;;;23.98;22.15;;;;;;;33.32;35.54;98577.53;5031483;28;20302;-92
2023/08/25 10:21:10;;;;;;;24.90;23.00;;;;;;;33.57;35.39;98575.28;5031313;28;20041;-92
2023/08/25 10:23:37;;;;;;;25.83;23.73;;;;;;;33.71;34.27;98574.44;5031533;28;20057;-93
2023/08/25 10:26:04;;;;;;;26.67;24.58;;;;;;;33.68;34.47;98571.19;5030345;28;20072;-92
2023/08/25 10:28:32;;;;;;;26.73;24.60;;;;;;;33.76;34.72;98568.34;5030799;28;20049;-93
2023/08/25 10:30:58;;;;;;;27.13;25.15;;;;;;;33.91;34.13;98566.38;5027381;28;20623;-91
2023/08/25 10:33:25;;;;;;;28.45;26.15;;;;;;;33.59;34.67;98561.31;5030682;28;20132;-93
2023/08/25 10:35:54;;;;;;;27.37;25.37;;;;;;;33.48;34.52;98558.00;5031006;28;20069;-93
2023/08/25 10:38:35;;;;;;;25.58;23.63;;;;;;;33.68;35.03;98566.56;5031456;28;20045;-93
2023/08/25 10:41:15;;;;;;;26.88;24.85;;;;;;;33.86;35.31;98570.78;5030761;28;20104;-91
2023/08/25 10:43:46;;;;;;;27.38;25.38;;;;;;;33.86;34.28;98559.75;5031547;28;20041;-92
2023/08/25 10:46:12;;;;;;;25.08;23.27;;;;;;;33.56;35.21;98562.56;5028236;28;20499;-92
2023/08/25 10:48:40;;;;;;;26.20;24.20;;;;;;;33.61;35.68;98565.63;5030750;28;20038;-91
2023/08/25 10:51:10;;;;;;;26.42;24.42;;;;;;;33.70;35.48;98549.81;5032926;28;20072;-93
2023/08/25 10:53:37;;;;;;;26.13;23.90;;;;;;;33.95;35.84;98555.81;5046670;28;20080;-93
2023/08/25 10:56:15;;;;;;;26.98;24.67;;;;;;;34.13;34.97;98553.44;5031371;28;20047;-92
2023/08/25 10:58:41;;;;;;;26.25;24.45;;;;;;;34.10;35.55;98551.06;5030332;28;20038;-92
2023/08/25 11:01:07;;;;;;;27.45;25.55;;;;;;;34.17;34.66;98543.72;5029742;28;20136;-91
2023/08/25 11:03:48;;;;;;;28.35;26.20;;;;;;;34.19;34.76;98551.81;5031186;28;20034;-92
2023/08/25 11:06:39;;;;;;;27.10;25.13;;;;;;;34.17;34.81;98548.41;5030520;28;20042;-92
2023/08/25 11:09:05;;;;;;;26.80;24.80;;;;;;;34.08;34.87;98544.03;5036426;28;20067;-91